Terminal Aerodrome Forecast
Issued by NWS Boston, MA

Home | Current Version | Previous Version | Text Only | Print | Product List | Glossary Off
Versions: 1 2 3 4 5 6 7 8 9 10 11 12 13 14 15 16 17 18 19 20 21 22 23
000 FTUS41 KBOX 231121 TAFBDL TAF KBDL 231121Z 2312/2418 28007KT P6SM SCT015 BKN060 FM231300 29009KT P6SM SCT060 FM231500 30011G17KT P6SM FEW060 FM240000 VRB04KT P6SM FEW250 FM241300 33005KT P6SM SKC=

USA.gov is the U.S. government's official web portal to all federal, state and local government web resources and services.